Palatine Bridge, New York
Current Conditions -  °F | °C
As of 12:15 PM on Friday 24 Oct 2014 (Local Time) from KNY0 Reporting Station
Overcast Overcast  
Wind Chill: 44°   Ceiling: 2500
Heat Index: 47°   Visibility: 10mi
Dew Point: 43°   Wind: 6mph
Humidity: 84%   Direction: 270°W
Pressure: 29.84"   Gusts: NA
Location:  42.91°N, 74.57°W
Report Text: KNY0 241615Z AUTO 27005KT 10SM OVC025 08/06 A2984 RMK AO2 T00840059
Loading
Personal Weather Stations






























Interactive Weather Map
Tropical Storm Tracking
New forecast layout! Learn more

10-Day Weather Forecast

Advertisements
Track Severe Weather on mobile